Time;durP1;ratioP1;P1;durP2;ratioP2;P2;SDS_P1;SDS_P2;PMS_P1;PMS_P2;Temp;Humidity;BMP_temperature;BMP_pressure;BME280_temperature;BME280_humidity;BME280_pressure;Samples;Min_cycle;Max_cycle;Signal;HPM_P1;HPM_P2
2022/04/18 00:02:17;;;;;;;2.90;2.60;;;8.40;98.10;;;;;;4992629;28;20757;-81
2022/04/18 00:04:43;;;;;;;2.53;2.33;;;8.40;97.70;;;;;;4997468;28;20811;-81
2022/04/18 00:07:10;;;;;;;2.53;2.33;;;8.30;98.30;;;;;;4997324;28;20406;-81
2022/04/18 00:09:36;;;;;;;2.50;2.30;;;8.60;97.70;;;;;;4998970;28;20394;-81
2022/04/18 00:12:02;;;;;;;2.67;2.38;;;8.50;97.70;;;;;;4996583;28;20445;-81
2022/04/18 00:14:28;;;;;;;2.85;2.65;;;8.50;97.70;;;;;;4997426;28;20392;-81
2022/04/18 00:16:54;;;;;;;3.10;2.60;;;8.70;98.60;;;;;;4995799;28;20954;-80
2022/04/18 00:19:19;;;;;;;2.67;2.35;;;8.30;98.30;;;;;;4996532;28;20414;-80
2022/04/18 00:21:45;;;;;;;2.80;2.43;;;8.40;98.70;;;;;;4995060;28;20452;-81
2022/04/18 00:24:11;;;;;;;3.20;2.83;;;8.20;98.60;;;;;;4994561;28;20895;-80
2022/04/18 00:26:39;;;;;;;2.58;2.38;;;8.30;99.20;;;;;;4996629;28;20407;-81
2022/04/18 00:29:06;;;;;;;2.80;2.60;;;8.20;98.60;;;;;;4996808;28;20426;-80
2022/04/18 00:31:32;;;;;;;2.78;2.50;;;7.90;98.40;;;;;;4991714;28;20399;-80
2022/04/18 00:33:57;;;;;;;2.60;2.33;;;8.20;98.80;;;;;;4996358;28;20768;-80
2022/04/18 00:36:23;;;;;;;2.90;2.60;;;8.30;98.90;;;;;;4994591;28;20398;-80
2022/04/18 00:38:48;;;;;;;2.58;2.38;;;8.30;98.30;;;;;;4997028;28;20749;-80
2022/04/18 00:41:14;;;;;;;2.60;2.40;;;8.10;98.40;;;;;;4996604;28;20402;-80
2022/04/18 00:43:41;;;;;;;2.92;2.47;;;8.20;98.00;;;;;;5000200;28;20477;-80
2022/04/18 00:46:07;;;;;;;2.85;2.60;;;8.30;98.30;;;;;;4993750;28;20414;-79
2022/04/18 00:48:34;;;;;;;2.72;2.50;;;8.20;98.40;;;;;;4996320;28;20796;-79
2022/04/18 00:50:59;;;;;;;2.72;2.53;;;8.50;98.00;;;;;;4996824;28;20879;-79
2022/04/18 00:53:26;;;;;;;2.60;2.30;;;8.10;98.30;;;;;;4992980;28;20398;-79
2022/04/18 00:55:52;;;;;;;2.80;2.50;;;8.20;98.20;;;;;;4999192;28;20389;-79
2022/04/18 00:58:18;;;;;;;2.63;2.43;;;8.50;98.50;;;;;;4996296;28;20561;-81
2022/04/18 01:00:44;;;;;;;3.17;2.50;;;8.10;98.70;;;;;;5000524;28;20466;-81
2022/04/18 01:03:10;;;;;;;2.33;2.13;;;8.30;98.20;;;;;;4996187;28;20733;-80
2022/04/18 01:05:35;;;;;;;2.78;2.47;;;8.10;99.20;;;;;;4996796;28;20383;-80
2022/04/18 01:08:01;;;;;;;2.50;2.30;;;8.10;98.30;;;;;;4996773;28;20460;-80
2022/04/18 01:10:27;;;;;;;2.70;2.50;;;8.20;98.70;;;;;;4995193;28;20453;-81
2022/04/18 01:12:52;;;;;;;2.72;2.20;;;8.10;98.00;;;;;;4994251;28;20517;-81
2022/04/18 01:15:18;;;;;;;2.65;2.45;;;8.10;97.70;;;;;;4996940;28;20455;-81
2022/04/18 01:17:44;;;;;;;2.57;2.17;;;8.10;97.80;;;;;;4999499;28;20880;-81
2022/04/18 01:20:10;;;;;;;2.20;2.00;;;8.60;98.30;;;;;;4996977;28;20401;-80
2022/04/18 01:22:36;;;;;;;2.70;2.50;;;8.00;97.80;;;;;;4996921;28;20432;-80
2022/04/18 01:30:30;;;;;;;2.42;2.22;;;7.80;98.20;;;;;;4994013;28;20389;-79
2022/04/18 01:32:56;;;;;;;2.60;2.40;;;7.30;98.00;;;;;;4994598;28;20850;-79
2022/04/18 01:35:22;;;;;;;3.00;2.40;;;7.40;98.20;;;;;;4994078;28;20915;-79
2022/04/18 01:37:47;;;;;;;2.80;2.47;;;7.30;98.70;;;;;;4993344;28;20831;-79
2022/04/18 01:40:13;;;;;;;2.60;2.40;;;7.60;99.80;;;;;;4997166;28;20477;-81
2022/04/18 01:42:39;;;;;;;2.78;2.47;;;7.30;99.30;;;;;;4995125;28;20477;-81
2022/04/18 01:45:05;;;;;;;2.30;2.10;;;7.20;99.30;;;;;;4994796;28;20425;-81
2022/04/18 01:47:31;;;;;;;2.53;2.33;;;7.30;99.00;;;;;;4994662;28;20442;-80
2022/04/18 01:49:56;;;;;;;2.38;2.17;;;7.40;99.70;;;;;;4986637;28;20924;-81
2022/04/18 01:52:22;;;;;;;2.80;2.50;;;7.40;99.10;;;;;;4994928;28;20385;-81
2022/04/18 01:54:48;;;;;;;2.40;2.20;;;7.60;98.70;;;;;;4993459;28;20478;-80
2022/04/18 01:57:13;;;;;;;2.67;2.47;;;7.50;98.90;;;;;;4993178;28;20863;-81
2022/04/18 01:59:42;;;;;;;2.50;2.30;;;7.70;98.60;;;;;;4992551;28;20394;-80
2022/04/18 02:02:08;;;;;;;2.70;2.35;;;7.70;98.70;;;;;;4995187;28;20397;-80
2022/04/18 02:04:33;;;;;;;2.33;2.10;;;7.30;98.70;;;;;;4995009;28;20797;-80
2022/04/18 02:06:59;;;;;;;2.95;2.25;;;7.80;98.70;;;;;;4994686;28;20472;-81
2022/04/18 02:09:25;;;;;;;2.40;2.20;;;7.30;98.80;;;;;;4995592;28;20389;-81
2022/04/18 02:11:50;;;;;;;2.60;2.00;;;7.40;99.30;;;;;;4993869;28;20386;-81
2022/04/18 02:14:16;;;;;;;3.20;2.50;;;7.50;99.10;;;;;;4994544;28;20469;-80
2022/04/18 02:16:41;;;;;;;2.60;2.40;;;7.60;99.00;;;;;;4993098;28;20386;-80
2022/04/18 02:19:07;;;;;;;2.53;2.33;;;7.50;99.00;;;;;;4993339;28;20406;-80
2022/04/18 02:21:33;;;;;;;3.47;2.40;;;7.60;98.80;;;;;;4992597;28;20425;-79
2022/04/18 02:23:58;;;;;;;2.60;2.40;;;7.30;99.20;;;;;;4994915;28;20409;-80
2022/04/18 02:26:24;;;;;;;3.00;2.25;;;7.40;99.30;;;;;;4996782;28;20890;-81
2022/04/18 02:28:50;;;;;;;2.58;2.33;;;7.30;99.50;;;;;;4994335;28;20401;-80
2022/04/18 02:31:16;;;;;;;2.67;2.38;;;7.20;99.90;;;;;;4995549;28;20386;-80
2022/04/18 02:33:41;;;;;;;2.43;2.23;;;7.10;99.90;;;;;;4993732;28;20393;-80
2022/04/18 02:36:07;;;;;;;2.67;2.40;;;6.90;99.90;;;;;;4992646;28;20494;-80
2022/04/18 02:38:32;;;;;;;2.90;2.70;;;7.10;99.90;;;;;;4996332;28;20398;-80
2022/04/18 02:40:58;;;;;;;2.40;2.20;;;7.00;99.90;;;;;;4994895;28;20420;-81
2022/04/18 02:43:24;;;;;;;3.23;2.50;;;7.10;99.90;;;;;;4993623;28;20396;-79
2022/04/18 02:45:49;;;;;;;2.77;2.57;;;7.10;99.90;;;;;;4994192;28;20388;-80
2022/04/18 02:48:15;;;;;;;2.63;2.43;;;7.00;99.90;;;;;;4997397;28;20435;-80
2022/04/18 02:50:40;;;;;;;2.90;2.70;;;7.00;99.90;;;;;;4996449;28;20929;-80
2022/04/18 02:53:07;;;;;;;2.60;2.40;;;6.90;99.90;;;;;;4992691;28;20417;-80
2022/04/18 02:55:32;;;;;;;3.28;2.63;;;6.90;99.90;;;;;;4992556;28;20814;-80
2022/04/18 02:57:58;;;;;;;2.75;2.40;;;6.60;99.90;;;;;;4994603;28;20473;-81
2022/04/18 03:00:24;;;;;;;2.72;2.50;;;6.20;99.90;;;;;;4994330;28;20902;-80
2022/04/18 03:02:49;;;;;;;3.40;2.60;;;6.50;99.90;;;;;;4995958;28;20390;-80
2022/04/18 03:05:15;;;;;;;2.67;2.47;;;6.60;99.90;;;;;;4993864;28;20434;-80
2022/04/18 03:07:41;;;;;;;2.95;2.75;;;6.60;99.90;;;;;;4994746;28;20408;-80
2022/04/18 03:10:07;;;;;;;2.78;2.58;;;6.80;99.90;;;;;;4993169;28;20393;-80
2022/04/18 03:12:33;;;;;;;2.97;2.63;;;6.80;99.90;;;;;;4993549;28;20391;-80
2022/04/18 03:14:59;;;;;;;2.50;2.30;;;6.90;99.90;;;;;;4992652;28;20763;-80
2022/04/18 03:17:24;;;;;;;2.80;2.60;;;6.90;99.90;;;;;;4992247;28;20457;-79
2022/04/18 03:19:52;;;;;;;2.53;2.33;;;6.60;99.90;;;;;;4991785;28;20400;-80
2022/04/18 03:22:19;;;;;;;3.03;2.78;;;6.80;99.90;;;;;;4994570;28;20418;-80
2022/04/18 03:24:45;;;;;;;2.72;2.53;;;6.80;99.90;;;;;;4991398;28;20415;-80
2022/04/18 03:27:11;;;;;;;3.05;2.80;;;7.00;99.90;;;;;;4993560;28;20464;-79
2022/04/18 03:29:37;;;;;;;2.88;2.67;;;6.90;99.90;;;;;;4994705;28;20429;-79
2022/04/18 03:32:04;;;;;;;2.90;2.53;;;6.80;99.90;;;;;;4993029;28;20410;-80
2022/04/18 03:34:29;;;;;;;3.17;2.70;;;7.00;99.90;;;;;;4998042;28;20481;-79
2022/04/18 03:39:51;;;;;;;2.75;2.55;;;7.00;99.90;;;;;;4997142;28;20386;-79
2022/04/18 03:42:19;;;;;;;2.65;2.45;;;6.90;99.90;;;;;;4997993;28;20461;-80
2022/04/18 03:44:46;;;;;;;2.88;2.67;;;7.10;99.90;;;;;;4996022;28;20403;-79
2022/04/18 03:47:13;;;;;;;2.77;2.57;;;7.00;99.90;;;;;;4995758;28;20411;-79
2022/04/18 03:49:40;;;;;;;2.97;2.65;;;7.00;99.90;;;;;;4995671;28;20470;-79
2022/04/18 03:52:06;;;;;;;3.10;2.75;;;6.90;99.90;;;;;;4995734;28;20394;-80
2022/04/18 03:54:33;;;;;;;3.17;2.88;;;6.90;99.90;;;;;;4997810;28;20379;-80
2022/04/18 03:56:58;;;;;;;2.53;2.33;;;6.80;99.90;;;;;;4997518;28;20390;-79
2022/04/18 03:59:24;;;;;;;2.97;2.60;;;6.70;99.90;;;;;;5006088;28;20893;-79
2022/04/18 04:01:50;;;;;;;2.70;2.50;;;7.00;99.90;;;;;;4993904;28;20399;-80
2022/04/18 04:04:15;;;;;;;2.75;2.50;;;7.20;99.90;;;;;;4998249;28;20385;-79
2022/04/18 04:06:41;;;;;;;2.70;2.50;;;7.20;99.90;;;;;;4996359;28;20410;-79
2022/04/18 04:09:06;;;;;;;2.75;2.55;;;7.10;99.90;;;;;;4990290;28;20398;-79
2022/04/18 04:11:33;;;;;;;2.90;2.60;;;7.10;99.90;;;;;;4995633;28;20398;-79
2022/04/18 04:13:59;;;;;;;3.67;2.80;;;7.20;99.90;;;;;;4995345;28;20398;-79
2022/04/18 04:16:25;;;;;;;2.80;2.60;;;7.10;99.90;;;;;;4995257;28;20398;-80
2022/04/18 04:18:50;;;;;;;2.75;2.53;;;7.10;99.90;;;;;;4997066;28;20863;-80
2022/04/18 04:21:16;;;;;;;2.63;2.43;;;7.00;99.90;;;;;;4999138;28;20401;-79
2022/04/18 04:23:42;;;;;;;2.90;2.60;;;7.00;99.90;;;;;;4996444;28;20394;-80
2022/04/18 04:26:07;;;;;;;3.33;2.80;;;6.80;99.90;;;;;;4997680;28;20430;-80
2022/04/18 04:28:34;;;;;;;3.10;2.80;;;7.00;99.90;;;;;;4995803;28;20436;-79
2022/04/18 04:31:03;;;;;;;2.92;2.72;;;6.90;99.90;;;;;;4995773;28;20394;-79
2022/04/18 04:33:30;;;;;;;3.03;2.70;;;7.00;99.90;;;;;;4996968;28;20383;-79
2022/04/18 04:35:58;;;;;;;3.17;2.87;;;6.90;99.90;;;;;;4996542;28;20465;-79
2022/04/18 04:38:24;;;;;;;3.35;3.05;;;6.90;99.90;;;;;;4996684;28;20441;-80
2022/04/18 04:40:50;;;;;;;4.60;3.38;;;6.90;99.90;;;;;;4996721;28;20390;-80
2022/04/18 04:43:16;;;;;;;3.80;3.50;;;6.80;99.90;;;;;;4995284;28;20398;-80
2022/04/18 04:45:41;;;;;;;4.07;3.72;;;6.50;99.90;;;;;;4995614;28;20382;-80
2022/04/18 04:48:07;;;;;;;3.77;3.47;;;6.40;99.90;;;;;;4994598;28;20406;-80
2022/04/18 04:50:33;;;;;;;3.60;3.30;;;6.20;99.90;;;;;;4998496;28;20834;-79
2022/04/18 04:53:00;;;;;;;3.80;3.30;;;5.90;99.90;;;;;;4993998;28;20397;-81
2022/04/18 04:55:26;;;;;;;4.03;3.45;;;6.10;99.90;;;;;;4997224;28;20391;-80
2022/04/18 04:57:52;;;;;;;3.75;3.45;;;6.20;99.90;;;;;;4997813;28;20440;-80
2022/04/18 05:00:17;;;;;;;3.63;3.33;;;6.60;99.90;;;;;;4995955;28;20448;-80
2022/04/18 05:02:43;;;;;;;3.70;2.83;;;6.50;99.90;;;;;;5005509;28;20414;-80
2022/04/18 05:05:09;;;;;;;5.20;3.40;;;6.60;99.90;;;;;;4994974;28;20395;-80
2022/04/18 05:07:34;;;;;;;3.97;3.47;;;6.70;99.90;;;;;;4988163;28;20418;-81
2022/04/18 05:10:00;;;;;;;4.18;3.45;;;6.70;99.90;;;;;;4994448;28;20394;-80
2022/04/18 05:12:28;;;;;;;3.03;2.83;;;6.80;99.90;;;;;;4992081;28;20395;-80
2022/04/18 05:14:54;;;;;;;4.70;3.45;;;6.90;99.90;;;;;;4996336;28;20422;-80
2022/04/18 05:17:20;;;;;;;3.50;3.20;;;6.90;99.90;;;;;;4996317;28;20449;-81
2022/04/18 05:19:46;;;;;;;3.30;3.00;;;7.10;99.90;;;;;;4998495;28;20457;-81
2022/04/18 05:22:12;;;;;;;5.82;3.40;;;7.00;99.90;;;;;;4994978;28;20394;-80
2022/04/18 05:24:37;;;;;;;5.72;3.20;;;6.90;99.90;;;;;;4995945;28;20467;-81
2022/04/18 05:27:03;;;;;;;3.20;3.00;;;6.90;99.90;;;;;;4994177;28;20452;-80
2022/04/18 05:29:29;;;;;;;2.97;2.67;;;6.90;99.90;;;;;;4994588;28;20486;-80
2022/04/18 05:31:54;;;;;;;3.43;3.13;;;6.90;99.90;;;;;;4993649;28;20429;-80
2022/04/18 05:34:20;;;;;;;3.27;3.07;;;6.90;99.90;;;;;;5004356;28;20402;-82
2022/04/18 05:36:45;;;;;;;3.30;3.00;;;7.50;99.90;;;;;;4991588;28;20915;-82
2022/04/18 05:39:11;;;;;;;3.53;3.22;;;7.10;99.90;;;;;;4994125;28;20390;-81
2022/04/18 05:41:37;;;;;;;3.30;3.08;;;7.10;99.90;;;;;;4993158;28;20876;-82
2022/04/18 05:44:02;;;;;;;3.92;3.63;;;7.10;99.90;;;;;;4993335;28;20402;-81
2022/04/18 05:46:28;;;;;;;3.35;3.10;;;7.20;99.90;;;;;;4995663;28;20450;-82
2022/04/18 05:48:55;;;;;;;3.70;3.40;;;7.10;99.90;;;;;;4994569;28;20444;-80
2022/04/18 05:51:20;;;;;;;3.70;3.40;;;6.90;99.90;;;;;;4994811;28;20744;-81
2022/04/18 05:53:46;;;;;;;3.70;3.40;;;7.00;99.90;;;;;;4994321;28;20391;-81
2022/04/18 05:56:11;;;;;;;4.13;3.50;;;7.10;99.90;;;;;;4994279;28;20392;-80
2022/04/18 05:58:40;;;;;;;3.72;3.42;;;7.10;99.90;;;;;;4993973;28;20402;-79
2022/04/18 06:01:06;;;;;;;3.67;3.35;;;7.20;99.90;;;;;;4994006;28;20383;-81
2022/04/18 06:03:32;;;;;;;3.42;3.13;;;7.30;99.90;;;;;;4993049;28;20399;-79
2022/04/18 06:05:57;;;;;;;3.60;3.30;;;7.30;99.90;;;;;;4990331;28;20434;-80
2022/04/18 06:08:23;;;;;;;3.77;3.47;;;7.30;99.90;;;;;;4995347;28;20465;-80
2022/04/18 06:10:49;;;;;;;4.03;3.63;;;7.20;99.90;;;;;;4994696;28;20453;-80
2022/04/18 06:13:14;;;;;;;3.60;3.30;;;7.50;99.90;;;;;;4992457;28;20464;-80
2022/04/18 06:15:40;;;;;;;4.20;3.80;;;7.30;99.90;;;;;;4994373;28;20469;-80
2022/04/18 06:18:05;;;;;;;4.00;3.67;;;7.50;99.90;;;;;;4995296;28;20464;-80
2022/04/18 06:20:31;;;;;;;3.90;3.50;;;7.50;99.90;;;;;;4993653;28;20456;-80
2022/04/18 06:22:57;;;;;;;4.00;3.70;;;7.60;99.90;;;;;;4994417;28;20395;-80
2022/04/18 06:25:22;;;;;;;5.00;4.03;;;7.90;99.90;;;;;;4992788;28;20877;-80
2022/04/18 06:27:48;;;;;;;4.13;3.73;;;7.60;99.90;;;;;;4992476;28;20406;-80
2022/04/18 06:30:14;;;;;;;4.83;4.33;;;7.60;99.90;;;;;;4994779;28;20391;-80
2022/04/18 06:32:39;;;;;;;4.63;4.17;;;7.30;99.90;;;;;;4994737;28;20856;-80
2022/04/18 06:35:05;;;;;;;5.13;4.30;;;7.30;99.90;;;;;;4994642;28;20399;-79
2022/04/18 06:37:34;;;;;;;4.38;3.75;;;7.50;99.90;;;;;;4992892;28;20458;-80
2022/04/18 06:40:00;;;;;;;4.18;3.88;;;7.50;99.90;;;;;;4994151;28;20402;-80
2022/04/18 06:42:25;;;;;;;3.70;3.40;;;7.40;99.90;;;;;;4994690;28;20409;-80
2022/04/18 06:44:51;;;;;;;3.70;3.40;;;7.10;99.90;;;;;;4994220;28;20409;-80
2022/04/18 06:47:19;;;;;;;3.93;3.60;;;7.10;99.90;;;;;;4994737;28;20415;-80
2022/04/18 06:49:47;;;;;;;4.03;3.63;;;7.20;99.90;;;;;;4993659;28;20394;-80
2022/04/18 06:52:13;;;;;;;4.40;3.47;;;7.30;99.90;;;;;;4992338;28;20397;-80
2022/04/18 06:54:39;;;;;;;3.53;3.22;;;7.30;99.90;;;;;;4991771;28;20382;-80
2022/04/18 06:57:04;;;;;;;3.90;3.50;;;7.60;99.90;;;;;;4991738;28;20422;-80
2022/04/18 06:59:30;;;;;;;3.70;3.40;;;7.50;99.90;;;;;;4994419;28;20469;-80
2022/04/18 07:01:58;;;;;;;3.60;3.30;;;7.50;99.90;;;;;;4990749;28;20518;-80
2022/04/18 07:04:24;;;;;;;3.38;3.05;;;7.40;99.90;;;;;;4995082;28;21079;-80
2022/04/18 07:06:50;;;;;;;3.58;3.28;;;7.50;99.90;;;;;;4992350;28;20401;-80
2022/04/18 07:09:19;;;;;;;3.53;3.22;;;8.10;99.90;;;;;;4994944;28;20382;-81
2022/04/18 07:11:45;;;;;;;3.73;3.40;;;7.90;99.90;;;;;;4994850;28;20867;-80
2022/04/18 07:14:17;;;;;;;4.32;3.92;;;8.00;99.90;;;;;;4995136;28;20465;-81
2022/04/18 07:16:44;;;;;;;3.77;3.40;;;8.00;99.90;;;;;;4995379;28;20425;-80
2022/04/18 07:19:10;;;;;;;3.73;3.43;;;8.00;99.90;;;;;;4995047;28;20472;-81
2022/04/18 07:21:36;;;;;;;3.47;3.17;;;8.10;99.90;;;;;;4996918;28;20477;-81
2022/04/18 07:24:03;;;;;;;3.40;3.10;;;8.10;99.90;;;;;;4995780;28;20426;-80
2022/04/18 07:26:28;;;;;;;3.80;3.50;;;8.30;99.90;;;;;;4997534;28;20416;-80
2022/04/18 07:28:54;;;;;;;3.67;3.38;;;8.40;99.90;;;;;;4997255;28;20390;-80
2022/04/18 07:31:20;;;;;;;3.63;3.33;;;8.50;99.90;;;;;;5007287;28;20437;-80
2022/04/18 07:33:46;;;;;;;3.70;3.40;;;8.60;99.90;;;;;;4998727;28;20389;-80
2022/04/18 07:36:11;;;;;;;3.60;3.30;;;8.70;99.90;;;;;;5001272;28;20389;-80
2022/04/18 07:38:49;;;;;;;3.23;2.93;;;8.80;99.90;;;;;;5006097;28;20469;-80
2022/04/18 07:41:35;;;;;;;3.53;3.10;;;8.50;99.90;;;;;;5001269;28;20899;-81
2022/04/18 07:44:01;;;;;;;3.40;3.10;;;8.70;99.90;;;;;;4993653;28;20402;-81
2022/04/18 07:46:27;;;;;;;3.47;3.17;;;8.90;99.90;;;;;;4995219;28;20464;-81
2022/04/18 07:48:53;;;;;;;4.22;3.67;;;8.50;99.90;;;;;;4997747;28;20393;-81
2022/04/18 07:51:34;;;;;;;3.50;3.20;;;8.40;99.90;;;;;;4997292;28;20395;-82
2022/04/18 07:54:01;;;;;;;4.10;3.25;;;8.50;99.90;;;;;;4999408;28;20488;-82
2022/04/18 07:56:27;;;;;;;3.90;3.30;;;8.50;99.90;;;;;;4998124;28;20394;-81
2022/04/18 07:58:53;;;;;;;3.43;3.10;;;8.40;99.90;;;;;;4998585;28;20402;-81
2022/04/18 08:01:20;;;;;;;3.20;2.90;;;8.60;99.90;;;;;;4997671;28;20399;-81
2022/04/18 08:03:46;;;;;;;3.25;3.00;;;8.60;99.90;;;;;;4996785;28;20907;-83
2022/04/18 08:06:12;;;;;;;3.40;2.90;;;8.80;99.90;;;;;;4998923;28;20545;-84
2022/04/18 08:08:38;;;;;;;3.70;3.00;;;8.80;99.90;;;;;;4993620;28;20951;-83
2022/04/18 08:11:04;;;;;;;3.30;2.97;;;9.20;99.90;;;;;;4996319;28;20775;-83
2022/04/18 08:13:30;;;;;;;3.40;3.10;;;8.70;99.90;;;;;;4995572;28;20856;-83
2022/04/18 08:15:56;;;;;;;4.82;3.13;;;9.10;99.80;;;;;;4987707;28;20402;-83
2022/04/18 08:18:22;;;;;;;3.33;3.03;;;9.10;99.90;;;;;;4978039;28;20466;-84
2022/04/18 08:20:49;;;;;;;3.45;3.15;;;9.20;99.70;;;;;;4978977;28;20815;-82
2022/04/18 08:23:15;;;;;;;3.30;2.95;;;9.40;99.80;;;;;;4992044;28;20497;-83
2022/04/18 08:25:40;;;;;;;3.40;3.00;;;9.70;99.30;;;;;;4988844;28;20510;-82
2022/04/18 08:28:07;;;;;;;3.10;2.90;;;9.90;99.50;;;;;;4994169;28;20435;-83
2022/04/18 08:30:32;;;;;;;2.90;2.60;;;9.80;99.50;;;;;;4994136;28;20807;-83
2022/04/18 08:32:58;;;;;;;2.95;2.70;;;9.90;99.60;;;;;;4994644;28;20516;-83
2022/04/18 08:35:24;;;;;;;2.90;2.70;;;9.90;99.40;;;;;;4990722;28;20406;-83
2022/04/18 08:37:50;;;;;;;3.10;2.58;;;9.90;99.40;;;;;;4989231;28;20418;-84
2022/04/18 08:40:16;;;;;;;2.90;2.60;;;10.00;99.60;;;;;;4994036;28;20422;-84
2022/04/18 08:42:42;;;;;;;2.88;2.40;;;10.00;99.90;;;;;;4992295;28;20394;-83
2022/04/18 08:45:13;;;;;;;2.53;2.33;;;10.10;99.90;;;;;;4989905;28;20775;-82
2022/04/18 08:53:16;;;;;;;2.75;1.77;;;10.50;97.50;;;;;;4995781;28;20945;-82
2022/04/18 08:55:42;;;;;;;2.88;2.00;;;10.70;97.70;;;;;;4987458;28;20398;-82
2022/04/18 08:58:09;;;;;;;2.20;2.00;;;11.00;98.50;;;;;;4990633;28;20973;-82
2022/04/18 09:00:35;;;;;;;2.43;1.93;;;10.90;97.50;;;;;;4989504;28;20491;-82
2022/04/18 09:03:01;;;;;;;2.03;1.85;;;11.50;96.30;;;;;;4991590;28;20513;-81
2022/04/18 09:05:27;;;;;;;1.83;1.73;;;11.30;96.70;;;;;;4991128;28;20493;-82
2022/04/18 09:08:01;;;;;;;2.40;2.05;;;11.60;96.30;;;;;;4991008;28;20414;-82
2022/04/18 09:10:27;;;;;;;2.97;2.70;;;11.60;96.60;;;;;;4991914;28;20393;-81
2022/04/18 09:12:53;;;;;;;4.28;3.58;;;11.60;96.90;;;;;;4991822;28;20872;-80
2022/04/18 09:15:37;;;;;;;3.78;2.10;;;11.70;96.60;;;;;;4987818;28;20417;-81
2022/04/18 09:18:17;;;;;;;2.60;2.40;;;11.60;96.20;;;;;;4990853;28;20414;-82
2022/04/18 09:20:50;;;;;;;2.33;1.92;;;11.70;95.90;;;;;;4978953;28;20441;-83
2022/04/18 09:23:27;;;;;;;2.00;1.83;;;12.00;97.00;;;;;;5003950;28;20410;-83
2022/04/18 09:25:58;;;;;;;2.13;1.65;;;12.30;95.90;;;;;;4990970;28;20402;-83
2022/04/18 09:28:26;;;;;;;2.85;2.08;;;12.40;94.90;;;;;;4990123;28;20501;-85
2022/04/18 09:31:00;;;;;;;2.00;1.70;;;12.50;95.60;;;;;;4990043;28;20504;-81
2022/04/18 09:33:56;;;;;;;1.83;1.73;;;12.40;95.20;;;;;;4988558;28;20410;-82
2022/04/18 09:36:23;;;;;;;1.83;1.73;;;12.70;95.30;;;;;;4990223;28;20398;-82
2022/04/18 09:38:51;;;;;;;2.83;1.70;;;12.70;95.40;;;;;;4990628;28;20410;-80
2022/04/18 09:41:31;;;;;;;1.90;1.70;;;13.00;95.20;;;;;;4988417;28;20421;-82
2022/04/18 09:43:57;;;;;;;1.67;1.58;;;13.30;93.90;;;;;;4990266;28;20923;-82
2022/04/18 09:46:24;;;;;;;2.15;1.58;;;13.40;94.40;;;;;;4987404;28;21021;-82
2022/04/18 09:48:51;;;;;;;1.80;1.70;;;13.60;93.80;;;;;;4990859;28;20391;-83
2022/04/18 09:51:25;;;;;;;2.55;1.50;;;13.70;93.50;;;;;;4990894;28;20400;-83
2022/04/18 09:53:53;;;;;;;1.50;1.40;;;13.70;93.70;;;;;;4988214;28;20929;-83
2022/04/18 09:56:21;;;;;;;1.50;1.40;;;13.80;92.30;;;;;;4987554;28;20770;-82
2022/04/18 09:58:46;;;;;;;1.80;1.38;;;14.00;92.50;;;;;;4992608;28;20394;-85
2022/04/18 10:01:13;;;;;;;2.30;1.38;;;14.30;93.20;;;;;;5005404;28;20509;-85
2022/04/18 10:03:40;;;;;;;2.00;1.83;;;14.40;92.30;;;;;;4992565;28;20787;-86
2022/04/18 10:06:06;;;;;;;1.90;1.73;;;14.50;93.70;;;;;;4988033;28;20402;-85
2022/04/18 10:08:34;;;;;;;3.30;1.77;;;14.70;94.70;;;;;;4991098;28;20386;-84
2022/04/18 10:11:02;;;;;;;1.85;1.42;;;15.00;92.50;;;;;;4992649;28;20533;-84
2022/04/18 10:13:29;;;;;;;1.90;1.57;;;15.10;91.50;;;;;;4991720;28;20395;-85
2022/04/18 10:15:58;;;;;;;1.92;1.73;;;15.30;92.50;;;;;;4992597;28;20389;-85
2022/04/18 10:18:24;;;;;;;2.10;1.90;;;15.10;92.30;;;;;;4992516;28;20387;-85
2022/04/18 10:21:05;;;;;;;3.35;2.15;;;14.90;92.50;;;;;;4991818;28;20747;-84
2022/04/18 10:24:09;;;;;;;1.88;1.67;;;15.10;93.20;;;;;;4992717;28;20405;-86
2022/04/18 10:27:08;;;;;;;1.80;1.50;;;15.30;92.60;;;;;;4991817;28;20500;-85
2022/04/18 10:29:42;;;;;;;3.45;1.50;;;15.60;91.30;;;;;;4992354;28;20391;-84
2022/04/18 10:32:09;;;;;;;1.60;1.50;;;15.90;92.10;;;;;;4992042;28;20432;-84
2022/04/18 10:34:36;;;;;;;1.70;1.60;;;15.90;91.60;;;;;;4992625;28;20409;-84
2022/04/18 10:37:03;;;;;;;2.10;1.50;;;16.00;88.70;;;;;;4992888;28;20390;-85
2022/04/18 10:39:36;;;;;;;1.50;1.30;;;16.00;89.50;;;;;;4991955;28;20393;-85
2022/04/18 10:42:22;;;;;;;1.48;1.38;;;16.20;90.20;;;;;;4991316;28;20378;-85
2022/04/18 10:45:07;;;;;;;1.63;1.40;;;16.50;89.50;;;;;;4990145;28;20398;-85
2022/04/18 10:48:01;;;;;;;1.38;1.27;;;16.70;91.20;;;;;;5004387;28;20472;-86
2022/04/18 10:50:34;;;;;;;1.38;1.20;;;17.00;88.50;;;;;;4991116;28;20417;-85
2022/04/18 10:53:10;;;;;;;2.00;1.10;;;17.20;90.80;;;;;;4993637;28;20384;-85
2022/04/18 10:55:51;;;;;;;1.05;0.95;;;17.50;82.20;;;;;;4991344;28;20925;-84
2022/04/18 10:58:18;;;;;;;2.10;1.10;;;17.40;80.90;;;;;;4992834;28;20382;-85
2022/04/18 11:00:52;;;;;;;1.85;1.27;;;16.90;80.40;;;;;;4990687;28;20398;-85
2022/04/18 11:03:46;;;;;;;1.48;1.05;;;16.90;83.40;;;;;;4991508;28;20386;-84
2022/04/18 11:06:18;;;;;;;1.90;1.00;;;17.30;78.40;;;;;;4991942;28;20397;-84
2022/04/18 11:09:03;;;;;;;0.82;0.82;;;17.50;79.80;;;;;;4995340;28;20391;-84
2022/04/18 11:11:37;;;;;;;1.00;0.90;;;17.70;79.80;;;;;;4989736;28;20535;-84
2022/04/18 11:14:17;;;;;;;2.55;1.42;;;17.80;78.30;;;;;;4989980;28;20403;-84
2022/04/18 11:16:42;;;;;;;1.55;1.10;;;17.70;79.70;;;;;;4991993;28;20393;-85
2022/04/18 11:19:10;;;;;;;1.98;1.15;;;17.60;81.90;;;;;;4988054;28;20398;-83
2022/04/18 11:22:00;;;;;;;3.95;1.13;;;17.80;78.70;;;;;;4993812;28;20754;-84
2022/04/18 11:24:59;;;;;;;1.55;1.20;;;17.90;82.50;;;;;;5002715;28;20396;-84
2022/04/18 11:27:28;;;;;;;1.20;1.10;;;18.20;81.40;;;;;;4991404;28;20415;-84
2022/04/18 11:30:08;;;;;;;1.42;0.90;;;18.20;72.80;;;;;;5003852;28;20470;-85
2022/04/18 11:32:44;;;;;;;1.55;1.13;;;18.20;72.90;;;;;;4990604;28;20394;-85
2022/04/18 11:35:11;;;;;;;1.35;0.98;;;18.50;78.80;;;;;;4992062;28;20435;-84
2022/04/18 11:37:39;;;;;;;1.10;0.90;;;18.40;72.80;;;;;;4993623;28;20894;-84
2022/04/18 11:40:10;;;;;;;2.25;1.10;;;18.10;71.50;;;;;;4992173;28;20887;-84
2022/04/18 11:42:38;;;;;;;1.20;1.10;;;17.90;73.00;;;;;;4989800;28;20397;-84
2022/04/18 11:45:06;;;;;;;1.50;1.00;;;18.10;75.30;;;;;;4991529;28;20433;-86
2022/04/18 11:47:36;;;;;;;1.25;1.05;;;18.30;73.90;;;;;;4989299;28;20418;-85
2022/04/18 11:50:04;;;;;;;1.30;1.20;;;18.10;73.30;;;;;;4997084;28;20407;-84
2022/04/18 11:52:33;;;;;;;1.17;1.08;;;18.30;76.60;;;;;;4975583;28;20898;-84
2022/04/18 11:55:01;;;;;;;1.48;1.10;;;18.30;73.60;;;;;;4990978;28;20412;-85
2022/04/18 11:57:29;;;;;;;1.98;1.40;;;18.40;77.90;;;;;;4984092;28;20729;-84
2022/04/18 11:59:56;;;;;;;1.40;1.30;;;18.80;78.80;;;;;;4995234;28;20387;-85
2022/04/18 12:07:57;;;;;;;1.92;1.30;;;19.30;77.70;;;;;;4994379;28;20429;-85
2022/04/18 12:10:25;;;;;;;1.50;1.17;;;19.30;82.10;;;;;;4993715;28;20823;-85
2022/04/18 12:12:52;;;;;;;1.52;1.33;;;19.40;78.60;;;;;;4993514;28;20943;-85
2022/04/18 12:15:25;;;;;;;1.70;1.25;;;19.50;79.60;;;;;;4994181;28;20397;-85
2022/04/18 12:17:53;;;;;;;2.33;1.50;;;19.60;77.20;;;;;;4992151;28;20844;-85
2022/04/18 12:20:27;;;;;;;2.45;1.30;;;19.80;77.20;;;;;;4995883;28;20404;-86
2022/04/18 12:23:01;;;;;;;1.53;1.33;;;19.60;75.30;;;;;;4993994;28;20954;-85
2022/04/18 12:25:30;;;;;;;1.58;1.48;;;19.70;81.40;;;;;;4993383;28;20910;-85
2022/04/18 12:28:00;;;;;;;1.67;1.30;;;19.90;77.60;;;;;;4986286;28;20471;-86
2022/04/18 12:30:27;;;;;;;1.52;1.42;;;20.00;79.50;;;;;;4982435;28;20938;-85
2022/04/18 12:32:54;;;;;;;1.50;1.30;;;20.20;79.80;;;;;;4986660;28;20440;-86
2022/04/18 12:35:39;;;;;;;1.45;1.35;;;20.30;78.30;;;;;;4992004;28;20414;-86
2022/04/18 12:38:07;;;;;;;2.63;1.52;;;20.40;78.30;;;;;;4992002;28;20489;-86
2022/04/18 12:40:34;;;;;;;2.20;1.43;;;20.50;76.80;;;;;;4990640;28;20423;-86
2022/04/18 12:43:07;;;;;;;2.17;1.55;;;20.30;77.10;;;;;;4985251;28;20515;-87
2022/04/18 12:45:47;;;;;;;2.08;1.42;;;20.50;79.30;;;;;;4991825;28;20439;-85
2022/04/18 12:48:13;;;;;;;1.80;1.40;;;20.60;75.90;;;;;;4991403;28;20446;-83
2022/04/18 12:50:39;;;;;;;2.10;1.55;;;20.50;75.90;;;;;;4994048;28;20414;-83
2022/04/18 12:53:05;;;;;;;2.47;1.40;;;20.40;77.90;;;;;;4985018;28;20413;-84
2022/04/18 12:55:30;;;;;;;1.33;1.23;;;20.50;81.50;;;;;;4985931;28;20499;-84
2022/04/18 12:57:57;;;;;;;1.60;1.50;;;20.60;76.30;;;;;;4987109;28;20414;-84
2022/04/18 13:00:24;;;;;;;2.30;1.50;;;20.40;79.40;;;;;;4987527;28;20412;-84
2022/04/18 13:03:17;;;;;;;1.60;1.48;;;20.40;81.30;;;;;;4992270;28;20421;-83
2022/04/18 13:05:44;;;;;;;2.63;1.60;;;20.60;78.90;;;;;;4991390;28;20458;-81
2022/04/18 13:08:10;;;;;;;1.63;1.30;;;20.70;82.10;;;;;;4995154;28;20403;-81
2022/04/18 13:10:37;;;;;;;2.72;1.60;;;20.90;83.60;;;;;;4989623;28;20406;-81
2022/04/18 13:13:13;;;;;;;1.77;1.67;;;21.00;82.50;;;;;;4985389;28;20405;-82
2022/04/18 13:15:40;;;;;;;1.40;1.27;;;21.10;77.80;;;;;;4986393;28;20390;-81
2022/04/18 13:18:21;;;;;;;1.40;1.23;;;20.70;83.10;;;;;;4990612;28;20807;-81